createdAt,value
2018-01-28T00:01:25.154Z,101713.25
2018-01-28T00:03:55.879Z,101710.07
2018-01-28T00:06:26.845Z,101706.36
2018-01-28T00:08:57.179Z,101690.19
2018-01-28T00:11:29.386Z,101684.28
2018-01-28T00:13:59.202Z,101689.16
2018-01-28T00:16:29.901Z,101683.84
2018-01-28T00:19:01.257Z,101668.67
2018-01-28T00:21:32.012Z,101663.63
2018-01-28T00:24:02.910Z,101668.13
2018-01-28T00:26:33.346Z,101664.30
2018-01-28T00:29:03.813Z,101655.75
2018-01-28T00:31:34.470Z,101662.97
2018-01-28T00:34:05.187Z,101634.91
2018-01-28T00:36:36.207Z,101642.39
2018-01-28T00:39:07.563Z,101650.70
2018-01-28T00:41:39.112Z,101645.91
2018-01-28T00:44:09.650Z,101641.05
2018-01-28T00:46:40.760Z,101640.71
2018-01-28T00:49:11.648Z,101636.50
2018-01-28T00:51:42.071Z,101641.09
2018-01-28T00:54:13.673Z,101635.23
2018-01-28T00:56:45.236Z,101638.84
2018-01-28T00:59:15.865Z,101632.84
2018-01-28T01:01:46.753Z,101624.05
2018-01-28T01:04:17.677Z,101627.91
2018-01-28T01:06:48.824Z,101612.66
2018-01-28T01:09:19.678Z,101597.34
2018-01-28T01:11:50.340Z,101600.83
2018-01-28T01:14:20.885Z,101605.10
2018-01-28T01:16:51.825Z,101595.73
2018-01-28T01:19:22.729Z,101594.26
2018-01-28T01:21:53.704Z,101595.14
2018-01-28T01:24:24.628Z,101583.10
2018-01-28T01:26:56.166Z,101592.30
2018-01-28T01:29:27.090Z,101587.70
2018-01-28T01:31:58.075Z,101580.69
2018-01-28T01:34:29.003Z,101560.72
2018-01-28T01:36:59.255Z,101553.06
2018-01-28T01:39:30.900Z,101553.99
2018-01-28T01:42:01.837Z,101546.45
2018-01-28T01:44:32.742Z,101541.91
2018-01-28T01:47:03.941Z,101542.85
2018-01-28T01:49:36.815Z,101540.70
2018-01-28T01:52:06.469Z,101536.40
2018-01-28T01:54:36.895Z,101533.76
2018-01-28T01:57:07.830Z,101538.31
2018-01-28T01:59:38.671Z,101526.33
2018-01-28T02:02:09.404Z,101525.99
2018-01-28T02:04:40.913Z,101521.03
2018-01-28T02:07:11.843Z,101515.77
2018-01-28T02:09:42.743Z,101510.64
2018-01-28T02:12:13.743Z,101517.63
2018-01-28T02:14:44.638Z,101514.25
2018-01-28T02:17:15.655Z,101510.79
2018-01-28T02:19:46.255Z,101500.50
2018-01-28T02:22:17.026Z,101493.94
2018-01-28T02:24:47.253Z,101488.36
2018-01-28T02:27:17.359Z,101481.03
2018-01-28T02:29:49.128Z,101474.16
2018-01-28T02:32:19.943Z,101464.20
2018-01-28T02:34:50.865Z,101465.95
2018-01-28T02:37:21.857Z,101461.31
2018-01-28T02:39:52.828Z,101455.45
2018-01-28T02:42:23.794Z,101454.95
2018-01-28T02:44:54.684Z,101450.03
2018-01-28T02:47:25.638Z,101439.87
2018-01-28T02:49:56.528Z,101443.09
2018-01-28T02:52:27.958Z,101451.74
2018-01-28T02:54:58.713Z,101437.48
2018-01-28T02:57:29.359Z,101422.11
2018-01-28T03:00:00.264Z,101396.84
2018-01-28T03:02:32.019Z,101394.98
2018-01-28T03:05:02.848Z,101383.61
2018-01-28T03:07:33.790Z,101385.20
2018-01-28T03:10:04.027Z,101383.45
2018-01-28T03:12:35.084Z,101372.58
2018-01-28T03:15:05.919Z,101365.80
2018-01-28T03:17:36.847Z,101366.78
2018-01-28T03:20:07.726Z,101372.41
2018-01-28T03:22:38.680Z,101365.90
2018-01-28T03:25:09.579Z,101367.97
2018-01-28T03:27:40.937Z,101356.00
2018-01-28T03:30:11.932Z,101356.27
2018-01-28T03:32:42.827Z,101369.24
2018-01-28T03:35:13.606Z,101353.70
2018-01-28T03:37:44.607Z,101350.33
2018-01-28T03:40:16.027Z,101344.08
2018-01-28T03:42:46.960Z,101351.02
2018-01-28T03:45:19.074Z,101340.91
2018-01-28T03:47:49.710Z,101336.23
2018-01-28T03:50:19.958Z,101332.75
2018-01-28T03:52:51.037Z,101320.02
2018-01-28T03:55:21.891Z,101315.66
2018-01-28T03:57:52.900Z,101308.72
2018-01-28T04:00:23.773Z,101307.17
2018-01-28T04:02:54.365Z,101292.92
2018-01-28T04:05:24.891Z,101295.28
2018-01-28T04:07:55.850Z,101295.55
2018-01-28T04:10:26.767Z,101287.59
2018-01-28T04:12:57.733Z,101270.28
2018-01-28T04:15:28.634Z,101266.33
2018-01-28T04:17:59.069Z,101262.19
2018-01-28T04:20:29.848Z,101253.41
2018-01-28T04:23:00.815Z,101257.22
2018-01-28T04:25:31.711Z,101230.87
2018-01-28T04:28:02.338Z,101270.65
2018-01-28T04:30:33.828Z,101268.60
2018-01-28T04:33:04.431Z,101252.12
2018-01-28T04:35:34.975Z,101251.53
2018-01-28T04:38:05.920Z,101241.64
2018-01-28T04:40:36.479Z,101233.16
2018-01-28T04:43:07.015Z,101216.97
2018-01-28T04:45:37.907Z,101202.04
2018-01-28T04:48:08.851Z,101213.42
2018-01-28T04:50:39.735Z,101206.61
2018-01-28T04:53:10.750Z,101193.72
2018-01-28T04:55:41.640Z,101199.52
2018-01-28T04:58:12.636Z,101196.47
2018-01-28T05:00:43.141Z,101178.19
2018-01-28T05:03:14.032Z,101197.78
2018-01-28T05:05:44.969Z,101192.47
2018-01-28T05:08:15.940Z,101178.63
2018-01-28T05:10:46.887Z,101162.73
2018-01-28T05:13:17.742Z,101151.34
2018-01-28T05:15:48.854Z,101143.78
2018-01-28T05:18:19.833Z,101136.27
2018-01-28T05:20:50.596Z,101145.71
2018-01-28T05:23:21.306Z,101154.95
2018-01-28T05:25:52.460Z,101155.28
2018-01-28T05:28:23.927Z,101152.65
2018-01-28T05:30:54.509Z,101141.13
2018-01-28T05:33:25.024Z,101121.22
2018-01-28T05:35:55.912Z,101127.61
2018-01-28T05:38:26.875Z,101125.97
2018-01-28T05:40:57.740Z,101121.83
2018-01-28T05:43:28.694Z,101128.41
2018-01-28T05:45:59.576Z,101138.79
2018-01-28T05:48:31.212Z,101141.05
2018-01-28T05:51:02.019Z,101116.16
2018-01-28T05:53:32.974Z,101118.48
2018-01-28T05:56:03.834Z,101119.97
2018-01-28T05:58:34.823Z,101108.39
2018-01-28T06:01:05.388Z,101099.33
2018-01-28T06:03:36.247Z,101094.93
2018-01-28T06:06:06.909Z,101086.04
2018-01-28T06:08:37.877Z,101060.17
2018-01-28T06:11:08.780Z,101090.85
2018-01-28T06:13:39.741Z,101086.08
2018-01-28T06:16:10.658Z,101087.97
2018-01-28T06:18:41.699Z,101105.48
2018-01-28T06:21:12.452Z,101111.41
2018-01-28T06:23:44.120Z,101111.09
2018-01-28T06:26:14.547Z,101108.20
2018-01-28T06:28:45.791Z,101105.52
2018-01-28T06:31:16.687Z,101098.88
2018-01-28T06:33:47.651Z,101115.64
2018-01-28T06:36:18.644Z,101129.82
2018-01-28T06:38:49.043Z,101122.84
2018-01-28T06:41:19.868Z,101126.70
2018-01-28T06:43:50.827Z,101138.40
2018-01-28T06:46:21.724Z,101147.72
2018-01-28T06:48:52.666Z,101147.50
2018-01-28T06:51:24.135Z,101147.98
2018-01-28T06:53:55.044Z,101136.45
2018-01-28T06:56:25.979Z,101153.84
2018-01-28T06:58:57.006Z,101136.45
2018-01-28T07:01:27.626Z,101146.75
2018-01-28T07:03:58.291Z,101155.53
2018-01-28T07:06:28.890Z,101156.73
2018-01-28T07:08:59.486Z,101154.70
2018-01-28T07:11:29.935Z,101154.06
2018-01-28T07:14:00.879Z,101143.48
2018-01-28T07:16:31.435Z,101147.43
2018-01-28T07:19:02.066Z,101143.70
2018-01-28T07:21:32.878Z,101142.77
2018-01-28T07:24:03.832Z,101151.52
2018-01-28T07:26:34.719Z,101163.90
2018-01-28T07:29:05.663Z,101174.54
2018-01-28T07:31:36.596Z,101178.09
2018-01-28T07:34:07.986Z,101187.70
2018-01-28T07:36:38.904Z,101187.88
2018-01-28T07:39:09.875Z,101201.89
2018-01-28T07:41:40.767Z,101212.42
2018-01-28T07:44:11.419Z,101203.16
2018-01-28T07:46:42.958Z,101204.64
2018-01-28T07:49:13.917Z,101195.55
2018-01-28T07:51:44.468Z,101198.16
2018-01-28T07:54:14.946Z,101194.36
2018-01-28T07:56:45.828Z,101203.41
2018-01-28T07:59:17.040Z,101196.42
2018-01-28T08:01:47.468Z,101196.60
2018-01-28T08:04:19.121Z,101205.12
2018-01-28T08:06:49.434Z,101201.61
2018-01-28T08:09:19.848Z,101208.08
2018-01-28T08:11:55.617Z,101209.77
2018-01-28T08:14:35.543Z,101210.37
2018-01-28T08:17:05.022Z,101206.48
2018-01-28T08:19:34.050Z,101211.71
2018-01-28T08:22:03.487Z,101202.87
2018-01-28T08:24:32.522Z,101199.36
2018-01-28T08:27:01.545Z,101192.45
2018-01-28T08:29:31.554Z,101195.00
2018-01-28T08:32:01.032Z,101197.72
2018-01-28T08:34:30.718Z,101198.98
2018-01-28T08:37:01.369Z,101206.91
2018-01-28T08:39:31.785Z,101213.66
2018-01-28T08:42:02.742Z,101213.60
2018-01-28T08:44:33.637Z,101216.72
2018-01-28T08:47:04.900Z,101217.75
2018-01-28T08:49:35.905Z,101219.16
2018-01-28T08:52:06.945Z,101230.91
2018-01-28T08:54:37.844Z,101235.00
2018-01-28T08:57:08.835Z,101242.41
2018-01-28T08:59:39.723Z,101253.11
2018-01-28T09:02:10.671Z,101249.94
2018-01-28T09:04:41.582Z,101259.50
2018-01-28T09:07:12.591Z,101255.58
2018-01-28T09:09:42.931Z,101248.55
2018-01-28T09:12:13.844Z,101250.92
2018-01-28T09:14:44.894Z,101243.25
2018-01-28T09:17:15.844Z,101244.25
2018-01-28T09:19:46.739Z,101252.00
2018-01-28T09:22:17.688Z,101254.60
2018-01-28T09:24:48.149Z,101254.72
2018-01-28T09:27:18.579Z,101269.46
2018-01-28T09:29:49.272Z,101257.89
2018-01-28T09:32:20.198Z,101260.75
2018-01-28T09:34:51.489Z,101265.85
2018-01-28T09:37:22.199Z,101263.07
2018-01-28T09:39:53.556Z,101275.07
2018-01-28T09:42:24.576Z,101271.12
2018-01-28T09:44:55.513Z,101275.55
2018-01-28T09:47:25.942Z,101277.25
2018-01-28T09:49:56.825Z,101273.03
2018-01-28T09:52:27.833Z,101276.72
2018-01-28T09:54:58.692Z,101277.63
2018-01-28T09:57:29.626Z,101284.08
2018-01-28T10:00:00.629Z,101277.75
2018-01-28T10:02:31.679Z,101268.00
2018-01-28T10:05:02.985Z,101268.86
2018-01-28T10:07:34.143Z,101273.86
2018-01-28T10:10:05.063Z,101285.11
2018-01-28T10:12:36.032Z,101274.73
2018-01-28T10:15:05.892Z,101284.59
2018-01-28T10:17:36.599Z,101267.34
2018-01-28T10:20:07.349Z,101275.85
2018-01-28T10:22:38.940Z,101275.27
2018-01-28T10:25:09.818Z,101289.49
2018-01-28T10:27:40.881Z,101276.98
2018-01-28T10:30:11.775Z,101261.45
2018-01-28T10:32:42.695Z,101275.38
2018-01-28T10:35:13.532Z,101265.12
2018-01-28T10:37:44.963Z,101274.16
2018-01-28T10:40:15.804Z,101275.00
2018-01-28T10:42:46.710Z,101293.06
2018-01-28T10:45:17.541Z,101282.28
2018-01-28T10:47:47.942Z,101295.55
2018-01-28T10:50:18.813Z,101264.25
2018-01-28T10:52:49.721Z,101266.66
2018-01-28T10:55:20.932Z,101257.88
2018-01-28T10:57:51.847Z,101254.78
2018-01-28T11:00:22.706Z,101262.33
2018-01-28T11:02:53.618Z,101248.00
2018-01-28T11:05:24.562Z,101269.28
2018-01-28T11:07:56.095Z,101254.06
2018-01-28T11:10:26.947Z,101258.97
2018-01-28T11:12:57.978Z,101244.88
2018-01-28T11:15:28.473Z,101265.27
2018-01-28T11:17:58.979Z,101249.06
2018-01-28T11:20:29.831Z,101264.75
2018-01-28T11:23:00.629Z,101254.98
2018-01-28T11:25:31.222Z,101275.17
2018-01-28T11:28:01.951Z,101252.48
2018-01-28T11:30:32.839Z,101275.92
2018-01-28T11:33:03.786Z,101289.47
2018-01-28T11:35:34.631Z,101275.41
2018-01-28T11:38:05.757Z,101277.37
2018-01-28T11:40:36.679Z,101280.53
2018-01-28T11:43:07.818Z,101298.34
2018-01-28T11:45:38.693Z,101303.34
2018-01-28T11:48:09.244Z,101297.03
2018-01-28T11:50:39.929Z,101285.05
2018-01-28T11:53:10.880Z,101274.52
2018-01-28T11:55:41.399Z,101279.80
2018-01-28T11:58:12.005Z,101274.86
2018-01-28T12:00:42.946Z,101276.64
2018-01-28T12:03:13.852Z,101271.52
2018-01-28T12:05:44.741Z,101275.11
2018-01-28T12:08:15.707Z,101279.99
2018-01-28T12:10:46.592Z,101279.44
2018-01-28T12:13:17.619Z,101278.76
2018-01-28T12:15:48.990Z,101280.81
2018-01-28T12:18:19.847Z,101267.25
2018-01-28T12:20:50.715Z,101276.20
2018-01-28T12:23:21.314Z,101280.30
2018-01-28T12:25:52.286Z,101293.56
2018-01-28T12:28:23.070Z,101270.60
2018-01-28T12:30:53.830Z,101274.48
2018-01-28T12:33:24.705Z,101270.94
2018-01-28T12:35:55.624Z,101256.55
2018-01-28T12:38:26.610Z,101268.35
2018-01-28T12:40:57.296Z,101270.17
2018-01-28T12:43:28.927Z,101275.06
2018-01-28T12:45:59.886Z,101288.72
2018-01-28T12:48:30.798Z,101274.02
2018-01-28T12:51:01.672Z,101277.78
2018-01-28T12:53:32.084Z,101267.09
2018-01-28T12:56:02.832Z,101265.67
2018-01-28T12:58:33.765Z,101269.10
2018-01-28T13:01:04.716Z,101268.97
2018-01-28T13:03:35.756Z,101276.67
2018-01-28T13:06:06.685Z,101268.60
2018-01-28T13:08:37.662Z,101235.52
2018-01-28T13:11:08.959Z,101266.42
2018-01-28T13:13:39.767Z,101287.64
2018-01-28T13:16:10.655Z,101276.89
2018-01-28T13:18:41.273Z,101270.00
2018-01-28T13:21:11.911Z,101263.82
2018-01-28T13:23:42.900Z,101265.28
2018-01-28T13:26:13.420Z,101270.53
2018-01-28T13:28:44.177Z,101277.63
2018-01-28T13:31:14.951Z,101282.73
2018-01-28T13:33:45.904Z,101265.87
2018-01-28T13:36:16.857Z,101274.30
2018-01-28T13:38:47.799Z,101281.48
2018-01-28T13:41:18.667Z,101276.92
2018-01-28T13:43:49.686Z,101262.66
2018-01-28T13:46:20.605Z,101234.46
2018-01-28T13:48:51.068Z,101242.69
2018-01-28T13:51:21.797Z,101266.88
2018-01-28T13:53:52.911Z,101252.82
2018-01-28T13:56:23.815Z,101271.08
2018-01-28T13:58:54.747Z,101261.66
2018-01-28T14:01:25.672Z,101254.97
2018-01-28T14:03:56.785Z,101251.54
2018-01-28T14:06:27.669Z,101259.70
2018-01-28T14:08:59.131Z,101259.05
2018-01-28T14:11:29.488Z,101257.33
2018-01-28T14:14:00.229Z,101257.96
2018-01-28T14:16:30.584Z,101274.55
2018-01-28T14:19:00.864Z,101271.31
2018-01-28T14:21:31.797Z,101272.20
2018-01-28T14:24:02.711Z,101270.95
2018-01-28T14:26:33.594Z,101261.34
2018-01-28T14:29:04.868Z,101263.78
2018-01-28T14:31:35.244Z,101253.33
2018-01-28T14:34:06.489Z,101260.50
2018-01-28T14:36:36.226Z,101274.06
2018-01-28T14:39:06.930Z,101246.83
2018-01-28T14:41:37.792Z,101266.12
2018-01-28T14:44:08.627Z,101258.39
2018-01-28T14:46:39.617Z,101266.39
2018-01-28T14:49:10.603Z,101261.14
2018-01-28T14:51:41.468Z,101248.55
2018-01-28T14:54:13.271Z,101258.23
2018-01-28T14:56:43.747Z,101252.02
2018-01-28T14:59:14.695Z,101254.86
2018-01-28T15:01:45.599Z,101251.63
2018-01-28T15:04:16.585Z,101243.30
2018-01-28T15:06:46.990Z,101247.79
2018-01-28T15:09:17.959Z,101247.82
2018-01-28T15:11:48.862Z,101249.41
2018-01-28T15:14:28.790Z,101240.91
2018-01-28T15:16:58.221Z,101245.61
2018-01-28T15:19:27.382Z,101253.77
2018-01-28T15:21:56.594Z,101251.92
2018-01-28T15:24:26.036Z,101245.08
2018-01-28T15:26:55.191Z,101261.20
2018-01-28T15:29:25.763Z,101245.11
2018-01-28T15:31:56.261Z,101237.95
2018-01-28T15:34:26.963Z,101243.84
2018-01-28T15:36:57.976Z,101247.31
2018-01-28T15:39:29.002Z,101246.55
2018-01-28T15:41:59.933Z,101247.19
2018-01-28T15:44:30.806Z,101241.27
2018-01-28T15:47:01.795Z,101247.25
2018-01-28T15:49:32.664Z,101243.05
2018-01-28T15:52:03.675Z,101250.52
2018-01-28T15:54:34.532Z,101243.34
2018-01-28T15:57:05.876Z,101253.46
2018-01-28T15:59:36.625Z,101251.55
2018-01-28T16:02:06.909Z,101273.36
2018-01-28T16:04:37.384Z,101261.16
2018-01-28T16:07:08.846Z,101259.41
2018-01-28T16:09:39.942Z,101265.17
2018-01-28T16:12:10.852Z,101260.37
2018-01-28T16:14:41.360Z,101264.27
2018-01-28T16:17:12.004Z,101263.31
2018-01-28T16:19:42.896Z,101249.98
2018-01-28T16:22:13.840Z,101257.50
2018-01-28T16:24:44.981Z,101248.06
2018-01-28T16:27:15.389Z,101255.02
2018-01-28T16:29:46.915Z,101257.69
2018-01-28T16:32:17.876Z,101255.22
2018-01-28T16:34:48.812Z,101254.48
2018-01-28T16:37:19.829Z,101251.58
2018-01-28T16:39:50.807Z,101277.13
2018-01-28T16:42:21.738Z,101238.30
2018-01-28T16:44:52.623Z,101268.23
2018-01-28T16:47:23.485Z,101261.95
2018-01-28T16:49:54.944Z,101260.14
2018-01-28T16:52:25.866Z,101256.23
2018-01-28T16:54:56.818Z,101250.05
2018-01-28T16:57:27.591Z,101248.83
2018-01-28T16:59:58.637Z,101249.63
2018-01-28T17:02:29.562Z,101253.66
2018-01-28T17:05:00.212Z,101252.27
2018-01-28T17:07:31.897Z,101255.64
2018-01-28T17:10:02.466Z,101252.10
2018-01-28T17:12:32.981Z,101258.38
2018-01-28T17:15:03.892Z,101255.61
2018-01-28T17:17:34.814Z,101249.12
2018-01-28T17:20:05.559Z,101251.48
2018-01-28T17:22:36.557Z,101256.54
2018-01-28T17:25:08.063Z,101259.47
2018-01-28T17:27:38.898Z,101263.38
2018-01-28T17:30:09.846Z,101267.87
2018-01-28T17:32:40.349Z,101274.02
2018-01-28T17:35:15.468Z,101273.95
2018-01-28T17:37:44.761Z,101270.25
2018-01-28T17:40:13.949Z,101277.49
2018-01-28T17:42:56.975Z,101267.54
2018-01-28T17:45:26.422Z,101280.63
2018-01-28T17:47:55.977Z,101285.39
2018-01-28T17:53:28.172Z,101270.75
2018-01-28T17:58:52.885Z,101253.92
2018-01-28T18:01:21.892Z,101254.72
2018-01-28T18:03:50.767Z,101247.08
2018-01-28T18:06:19.906Z,101249.92
2018-01-28T18:08:48.774Z,101242.12
2018-01-28T18:11:17.748Z,101238.62
2018-01-28T18:13:46.997Z,101238.78
2018-01-28T18:16:15.911Z,101248.24
2018-01-28T18:18:45.059Z,101242.45
2018-01-28T18:21:14.118Z,101266.92
2018-01-28T18:23:43.036Z,101243.31
2018-01-28T18:26:11.955Z,101244.25
2018-01-28T18:28:40.967Z,101245.73
2018-01-28T18:31:11.567Z,101243.52
2018-01-28T18:33:41.901Z,101253.14
2018-01-28T18:36:10.924Z,101254.72
2018-01-28T18:38:39.985Z,101264.80
2018-01-28T18:41:09.353Z,101247.91
2018-01-28T18:43:38.446Z,101262.81
2018-01-28T18:46:07.576Z,101244.14
2018-01-28T18:48:37.025Z,101246.27
2018-01-28T18:51:06.127Z,101249.47
2018-01-28T18:53:35.200Z,101257.83
2018-01-28T18:56:04.434Z,101251.88
2018-01-28T18:58:33.843Z,101237.77
2018-01-28T19:01:03.338Z,101233.63
2018-01-28T19:03:32.662Z,101238.38
2018-01-28T19:06:02.053Z,101242.05
2018-01-28T19:08:31.132Z,101227.03
2018-01-28T19:11:00.528Z,101230.28
2018-01-28T19:13:30.191Z,101224.68
2018-01-28T19:15:59.437Z,101233.11
2018-01-28T19:18:28.784Z,101230.70
2018-01-28T19:20:58.481Z,101228.19
2018-01-28T19:23:27.798Z,101226.77
2018-01-28T19:25:57.214Z,101232.03
2018-01-28T19:28:26.521Z,101239.17
2018-01-28T19:30:56.142Z,101231.59
2018-01-28T19:33:27.276Z,101234.24
2018-01-28T19:35:56.726Z,101223.91
2018-01-28T19:38:26.248Z,101219.11
2018-01-28T19:40:55.716Z,101217.77
2018-01-28T19:43:25.262Z,101213.42
2018-01-28T19:45:55.801Z,101204.53
2018-01-28T19:48:26.526Z,101203.21
2018-01-28T19:50:57.678Z,101206.72
2018-01-28T19:53:29.454Z,101211.80
2018-01-28T19:55:59.940Z,101218.53
2018-01-28T19:58:29.689Z,101216.50
2018-01-28T20:01:00.877Z,101208.86
2018-01-28T20:03:32.391Z,101199.77
2018-01-28T20:06:01.834Z,101199.17
2018-01-28T20:08:32.850Z,101210.47
2018-01-28T20:11:04.685Z,101206.28
2018-01-28T20:13:35.264Z,101197.92
2018-01-28T20:16:07.405Z,101196.83
2018-01-28T20:18:36.648Z,101204.64
2018-01-28T20:21:07.730Z,101193.09
2018-01-28T20:23:38.412Z,101203.75
2018-01-28T20:26:14.880Z,101198.64
2018-01-28T20:28:44.136Z,101190.35
2018-01-28T20:31:13.301Z,101199.26
2018-01-28T20:33:44.323Z,101203.58
2018-01-28T20:36:13.264Z,101194.94
2018-01-28T20:38:42.866Z,101199.28
2018-01-28T20:41:12.424Z,101208.76
2018-01-28T20:43:43.033Z,101200.56
2018-01-28T20:46:13.888Z,101189.88
2018-01-28T20:48:45.668Z,101197.93
2018-01-28T20:51:16.511Z,101205.86
2018-01-28T20:53:46.971Z,101205.12
2018-01-28T20:56:18.052Z,101204.23
2018-01-28T20:58:48.903Z,101207.05
2018-01-28T21:01:20.268Z,101202.45
2018-01-28T21:03:50.515Z,101211.08
2018-01-28T21:06:21.550Z,101208.51
2018-01-28T21:08:51.679Z,101209.47
2018-01-28T21:11:22.888Z,101201.88
2018-01-28T21:13:54.973Z,101202.59
2018-01-28T21:16:26.595Z,101206.99
2018-01-28T21:18:58.033Z,101208.25
2018-01-28T21:21:28.399Z,101201.76
2018-01-28T21:23:58.355Z,101204.90
2018-01-28T21:26:28.947Z,101205.73
2018-01-28T21:29:00.656Z,101210.72
2018-01-28T21:31:31.252Z,101207.50
2018-01-28T21:34:01.941Z,101194.52
2018-01-28T21:36:32.893Z,101193.80
2018-01-28T21:39:03.457Z,101182.41
2018-01-28T21:41:34.905Z,101189.98
2018-01-28T21:44:05.906Z,101191.67
2018-01-28T21:46:36.789Z,101178.81
2018-01-28T21:49:07.125Z,101174.08
2018-01-28T21:51:37.733Z,101163.97
2018-01-28T21:54:08.330Z,101168.23
2018-01-28T21:56:41.015Z,101169.44
2018-01-28T21:59:11.807Z,101165.48
2018-01-28T22:01:42.705Z,101158.80
2018-01-28T22:04:13.207Z,101168.84
2018-01-28T22:06:44.245Z,101154.70
2018-01-28T22:09:15.715Z,101155.69
2018-01-28T22:11:46.297Z,101156.22
2018-01-28T22:14:16.862Z,101155.50
2018-01-28T22:16:47.750Z,101155.98
2018-01-28T22:19:18.277Z,101148.31
2018-01-28T22:21:48.967Z,101143.64
2018-01-28T22:24:19.794Z,101138.41
2018-01-28T22:26:50.701Z,101139.39
2018-01-28T22:29:21.244Z,101141.72
2018-01-28T22:31:52.959Z,101133.42
2018-01-28T22:34:23.801Z,101132.95
2018-01-28T22:36:54.725Z,101132.05
2018-01-28T22:39:25.560Z,101124.23
2018-01-28T22:41:56.178Z,101127.47
2018-01-28T22:44:26.537Z,101129.23
2018-01-28T22:46:56.943Z,101118.24
2018-01-28T22:49:27.422Z,101118.28
2018-01-28T22:51:57.810Z,101110.89
2018-01-28T22:54:29.095Z,101102.55
2018-01-28T22:57:00.013Z,101108.37
2018-01-28T22:59:30.468Z,101100.19
2018-01-28T23:02:01.271Z,101096.95
2018-01-28T23:04:31.958Z,101096.22
2018-01-28T23:07:02.907Z,101108.37
2018-01-28T23:09:33.769Z,101107.23
2018-01-28T23:12:04.984Z,101099.80
2018-01-28T23:14:35.792Z,101094.63
2018-01-28T23:17:06.459Z,101086.50
2018-01-28T23:19:36.907Z,101082.06
2018-01-28T23:22:07.807Z,101081.83
2018-01-28T23:24:38.645Z,101082.96
2018-01-28T23:27:09.603Z,101084.89
2018-01-28T23:29:40.251Z,101090.41
2018-01-28T23:32:10.946Z,101092.23
2018-01-28T23:34:42.343Z,101093.19
2018-01-28T23:37:12.973Z,101101.53
2018-01-28T23:39:44.453Z,101094.66
2018-01-28T23:42:15.112Z,101098.52
2018-01-28T23:44:45.968Z,101100.27
2018-01-28T23:47:16.487Z,101093.47
2018-01-28T23:49:46.868Z,101091.00
2018-01-28T23:52:17.783Z,101092.97
2018-01-28T23:54:48.645Z,101089.94
2018-01-28T23:57:19.846Z,101085.36
2018-01-28T23:59:51.769Z,101108.10
